WetterOnline ( http://www.wetteronline.de )

Wetter aktuell Lüchow

Aktuelles Wetter: Lüchow (18m)

6-stündlich | Neueste Meldungen
Ortszeit Temperatur Wetter
So, 22.07. 20:00 20.8° C wolkig
So, 22.07. 14:00 28.3° C wolkig
So, 22.07. 8:00 20.9° C bewölkt
So, 22.07. 2:00 19.2° C bedeckt
Sa, 21.07. 20:00 25.5° C bewölkt
Sa, 21.07. 14:00 27.4° C wolkig
Sa, 21.07. 8:00 14.9° C wolkig
Sa, 21.07. 2:00 11.7° C wolkig
Ortszeit Temperatur Wetter
So, 22.07. 20:00 20.8° C wolkig
So, 22.07. 19:50 20.8° C wolkig
So, 22.07. 19:40 20.9° C wolkig
So, 22.07. 19:30 20.8° C bewölkt
So, 22.07. 19:20 20.8° C bewölkt
So, 22.07. 19:10 20.5° C bewölkt
So, 22.07. 19:00 20.6° C bedeckt
So, 22.07. 18:30 20.9° C bewölkt
So, 22.07. 18:00 22.1° C Sprühregen
So, 22.07. 17:30 25.5° C bewölkt
So, 22.07. 17:00 26.0° C bewölkt
Ortszeit Relative Feuchte Sichtweite
So, 22.07. 20:00 82% 12 km
So, 22.07. 14:00 40% 23 km
So, 22.07. 8:00 63% 19 km
So, 22.07. 2:00 70% 16 km
Sa, 21.07. 20:00 47% 26 km
Sa, 21.07. 14:00 34% 20 km
Sa, 21.07. 8:00 75% 23 km
Sa, 21.07. 2:00 82% 24 km
Ortszeit Relative Feuchte Sichtweite
So, 22.07. 20:00 82% 12 km
So, 22.07. 19:50 82% -
So, 22.07. 19:40 84% -
So, 22.07. 19:30 82% 9 km
So, 22.07. 19:20 82% -
So, 22.07. 19:10 85% -
So, 22.07. 19:00 83% 9 km
So, 22.07. 18:30 84% 11 km
So, 22.07. 18:00 75% 10 km
So, 22.07. 17:30 53% 21 km
So, 22.07. 17:00 58% 19 km
Ortszeit Niederschlagsmenge Niederschlagsart
So, 22.07. 20:00 3 l/m2 in 12 Std. Regenschauer
So, 22.07. 14:00 0.0 l/m2 in 6 Std. -
So, 22.07. 8:00 0.1 l/m2 in 12 Std. Regen
So, 22.07. 2:00 0.0 l/m2 in 6 Std. -
Sa, 21.07. 20:00 0.1 l/m2 in 12 Std. Regen
Sa, 21.07. 14:00 0.0 l/m2 in 6 Std. -
Sa, 21.07. 8:00 0.0 l/m2 in 12 Std. -
Sa, 21.07. 2:00 0.0 l/m2 in 6 Std. -
Ortszeit Niederschlagsmenge Niederschlagsart
So, 22.07. 20:00 0.0 l/m2 in 1 Std. Regenschauer
So, 22.07. 19:50 keine Meldung -
So, 22.07. 19:40 keine Meldung -
So, 22.07. 19:30 0.0 l/m2 in 1 Std. -
So, 22.07. 19:20 keine Meldung -
So, 22.07. 19:10 keine Meldung -
So, 22.07. 19:00 0.1 l/m2 in 1 Std. Regen
So, 22.07. 18:30 0.1 l/m2 in 1 Std. Schneeregen
So, 22.07. 18:00 0.7 l/m2 in 1 Std. Regen
So, 22.07. 17:30 0.0 l/m2 in 1 Std. -
So, 22.07. 17:00 0.0 l/m2 in 1 Std. Regenschauer
Ortszeit Stärke Spitze Richtung
km/h Bft. km/h Grad Sektor
So, 22.07. 20:00 9 2 31 190° S
So, 22.07. 14:00 7 2 25 320° NW
So, 22.07. 8:00 7 2 14 160° S
So, 22.07. 2:00 7 2 18 70° O
Sa, 21.07. 20:00 7 2 24 40° NO
Sa, 21.07. 14:00 11 2 40 80° O
Sa, 21.07. 8:00 4 1 7 10° N
Sa, 21.07. 2:00 0 0 22 - -
Ortszeit Stärke Spitze Richtung
km/h Bft. km/h Grad Sektor
So, 22.07. 20:00 9 2 19 190° S
So, 22.07. 19:50 9 2 - 190° S
So, 22.07. 19:40 7 2 - 200° S
So, 22.07. 19:30 11 2 18 180° S
So, 22.07. 19:20 11 2 - 180° S
So, 22.07. 19:10 11 2 - 190° S
So, 22.07. 19:00 11 2 25 170° S
So, 22.07. 18:30 13 3 26 170° S
So, 22.07. 18:00 15 3 28 170° S
So, 22.07. 17:30 13 3 20 80° O
So, 22.07. 17:00 7 2 11 180° S
Ortszeit Untergrenze Bedeckung Gattung
total tief tief mittel hoch
So, 22.07. 20:00 2100 m 6/8 3/8 - - -
So, 22.07. 14:00 1800 m 7/8 1/8 - - -
So, 22.07. 8:00 2400 m 8/8 7/8 - - -
So, 22.07. 2:00 3000 m 8/8 8/8 - - -
Sa, 21.07. 20:00 3300 m 8/8 7/8 - - -
Sa, 21.07. 14:00 2400 m 7/8 1/8 - - -
Sa, 21.07. 8:00 7500 m 8/8 0/8 - - -
Sa, 21.07. 2:00 2400 m 5/8 4/8 - - -
Ortszeit Bedeckungsgrad in Achtel und Wolkenuntergrenze
So, 22.07. 20:00 3(2100m) 6(3000m)
So, 22.07. 19:50 3(2100m) 6(3000m)
So, 22.07. 19:40 3(1800m) 4(2400m) 7(3000m)
So, 22.07. 19:30 7(1800m) 7(2400m) 8(3300m)
So, 22.07. 19:20 7(1800m) 7(2400m) 8(3300m)
So, 22.07. 19:10 7(1800m) 7(2400m) 8(3300m)
So, 22.07. 19:00 7(1800m) 8(2400m) 8(3300m)
So, 22.07. 18:30 7(1800m) 7(2400m) 8(2700m)
So, 22.07. 18:00 1(480m) 7(1800m)
So, 22.07. 17:30 7(1800m) 8(3900m) 8(4500m)
So, 22.07. 17:00 7(1800m) 7(2700m) 8(3600m)
Ortszeit Luftdruck NN (hPa) Tendenz (hPa in 3 Std.)
So, 22.07. 20:00 1014 + 1,6
So, 22.07. 14:00 1012 - 0,4
So, 22.07. 8:00 1012 + 0,2
So, 22.07. 2:00 1012 0,0
Sa, 21.07. 20:00 1011 - 0,5
Sa, 21.07. 14:00 1012 - 0,9
Sa, 21.07. 8:00 1013 0,0
Sa, 21.07. 2:00 1014 0,0
Ortszeit Luftdruck NN (hPa) Tendenz (hPa in 3 Std.)
So, 22.07. 20:00 1014 + 1,6
So, 22.07. 19:50 1014 keine Meldung
So, 22.07. 19:40 1014 keine Meldung
So, 22.07. 19:30 1013 + 1,6
So, 22.07. 19:20 1013 keine Meldung
So, 22.07. 19:10 1013 keine Meldung
So, 22.07. 19:00 1013 + 1,7
So, 22.07. 18:30 1013 + 0,9
So, 22.07. 18:00 1013 + 0,5
So, 22.07. 17:30 1012 + 0,6
So, 22.07. 17:00 1012 0,0
Ortszeit Schneehöhe (cm)
So, 22.07. 20:00 -
So, 22.07. 14:00 -
So, 22.07. 8:00 -
So, 22.07. 2:00 -
Sa, 21.07. 20:00 -
Sa, 21.07. 14:00 -
Sa, 21.07. 8:00 -
Sa, 21.07. 2:00 -
Ortszeit Schneehöhe (cm)
So, 22.07. 20:00 -
So, 22.07. 19:50 -
So, 22.07. 19:40 -
So, 22.07. 19:30 -
So, 22.07. 19:20 -
So, 22.07. 19:10 -
So, 22.07. 19:00 -
So, 22.07. 18:30 -
So, 22.07. 18:00 -
So, 22.07. 17:30 -
So, 22.07. 17:00 -
Link zu dieser Seite / Seite empfehlen

Das Wetter in ...